sensor_id;sensor_type;location;lat;lon;timestamp;P1;durP1;ratioP1;P2;durP2;ratioP2
8066;SDS011;4076;48.076;9.118;2022-07-29T00:02:09;6.43;;;5.93;;
8066;SDS011;4076;48.076;9.118;2022-07-29T00:04:35;5.40;;;5.00;;
8066;SDS011;4076;48.076;9.118;2022-07-29T00:07:01;6.23;;;5.83;;
8066;SDS011;4076;48.076;9.118;2022-07-29T00:09:27;5.63;;;5.23;;
8066;SDS011;4076;48.076;9.118;2022-07-29T00:11:53;4.13;;;3.83;;
8066;SDS011;4076;48.076;9.118;2022-07-29T00:14:22;4.87;;;4.57;;
8066;SDS011;4076;48.076;9.118;2022-07-29T00:16:47;5.53;;;5.17;;
8066;SDS011;4076;48.076;9.118;2022-07-29T00:19:13;4.60;;;4.10;;
8066;SDS011;4076;48.076;9.118;2022-07-29T00:21:38;4.57;;;4.13;;
8066;SDS011;4076;48.076;9.118;2022-07-29T00:24:04;5.30;;;4.90;;
8066;SDS011;4076;48.076;9.118;2022-07-29T00:26:29;4.93;;;4.53;;
8066;SDS011;4076;48.076;9.118;2022-07-29T00:28:57;3.40;;;3.17;;
8066;SDS011;4076;48.076;9.118;2022-07-29T00:31:27;5.67;;;5.27;;
8066;SDS011;4076;48.076;9.118;2022-07-29T00:33:52;4.87;;;4.47;;
8066;SDS011;4076;48.076;9.118;2022-07-29T00:36:18;4.37;;;4.07;;
8066;SDS011;4076;48.076;9.118;2022-07-29T00:38:45;4.90;;;4.60;;
8066;SDS011;4076;48.076;9.118;2022-07-29T00:41:15;5.47;;;5.07;;
8066;SDS011;4076;48.076;9.118;2022-07-29T00:43:41;4.97;;;4.67;;
8066;SDS011;4076;48.076;9.118;2022-07-29T00:46:07;4.90;;;4.60;;
8066;SDS011;4076;48.076;9.118;2022-07-29T00:48:32;4.10;;;3.80;;
8066;SDS011;4076;48.076;9.118;2022-07-29T00:50:58;5.47;;;5.10;;
8066;SDS011;4076;48.076;9.118;2022-07-29T00:53:26;4.30;;;3.97;;
8066;SDS011;4076;48.076;9.118;2022-07-29T00:55:55;9.30;;;6.27;;
8066;SDS011;4076;48.076;9.118;2022-07-29T00:58:21;9.13;;;4.30;;
8066;SDS011;4076;48.076;9.118;2022-07-29T01:00:47;4.43;;;4.13;;
8066;SDS011;4076;48.076;9.118;2022-07-29T01:03:12;3.83;;;3.57;;
8066;SDS011;4076;48.076;9.118;2022-07-29T01:05:38;4.17;;;3.77;;
8066;SDS011;4076;48.076;9.118;2022-07-29T01:08:05;4.73;;;4.43;;
8066;SDS011;4076;48.076;9.118;2022-07-29T01:10:31;4.03;;;3.73;;
8066;SDS011;4076;48.076;9.118;2022-07-29T01:12:58;4.20;;;3.90;;
8066;SDS011;4076;48.076;9.118;2022-07-29T01:15:26;4.47;;;4.10;;
8066;SDS011;4076;48.076;9.118;2022-07-29T01:18:04;3.43;;;3.23;;
8066;SDS011;4076;48.076;9.118;2022-07-29T01:26:28;3.80;;;3.50;;
8066;SDS011;4076;48.076;9.118;2022-07-29T01:29:12;4.30;;;4.00;;
8066;SDS011;4076;48.076;9.118;2022-07-29T01:31:59;3.80;;;3.57;;
8066;SDS011;4076;48.076;9.118;2022-07-29T01:34:35;3.70;;;3.40;;
8066;SDS011;4076;48.076;9.118;2022-07-29T01:37:12;6.37;;;3.90;;
8066;SDS011;4076;48.076;9.118;2022-07-29T01:39:43;5.77;;;5.20;;
8066;SDS011;4076;48.076;9.118;2022-07-29T01:42:14;3.40;;;3.20;;
8066;SDS011;4076;48.076;9.118;2022-07-29T01:47:37;3.37;;;3.17;;
8066;SDS011;4076;48.076;9.118;2022-07-29T01:50:08;3.83;;;3.53;;
8066;SDS011;4076;48.076;9.118;2022-07-29T01:52:38;4.20;;;3.90;;
8066;SDS011;4076;48.076;9.118;2022-07-29T01:55:13;3.90;;;3.10;;
8066;SDS011;4076;48.076;9.118;2022-07-29T01:57:40;3.53;;;3.23;;
8066;SDS011;4076;48.076;9.118;2022-07-29T02:00:10;3.67;;;3.37;;
8066;SDS011;4076;48.076;9.118;2022-07-29T02:02:37;2.90;;;2.70;;
8066;SDS011;4076;48.076;9.118;2022-07-29T02:05:06;3.90;;;3.60;;
8066;SDS011;4076;48.076;9.118;2022-07-29T02:07:34;3.83;;;3.63;;
8066;SDS011;4076;48.076;9.118;2022-07-29T02:10:02;4.57;;;4.27;;
8066;SDS011;4076;48.076;9.118;2022-07-29T02:12:30;3.90;;;3.50;;
8066;SDS011;4076;48.076;9.118;2022-07-29T02:14:57;3.73;;;3.43;;
8066;SDS011;4076;48.076;9.118;2022-07-29T02:17:26;3.43;;;3.23;;
8066;SDS011;4076;48.076;9.118;2022-07-29T02:19:56;3.50;;;3.30;;
8066;SDS011;4076;48.076;9.118;2022-07-29T02:22:24;3.20;;;3.00;;
8066;SDS011;4076;48.076;9.118;2022-07-29T02:24:51;3.47;;;3.27;;
8066;SDS011;4076;48.076;9.118;2022-07-29T02:27:19;4.50;;;4.10;;
8066;SDS011;4076;48.076;9.118;2022-07-29T02:29:46;4.37;;;3.97;;
8066;SDS011;4076;48.076;9.118;2022-07-29T02:32:14;5.00;;;4.70;;
8066;SDS011;4076;48.076;9.118;2022-07-29T02:34:41;3.57;;;3.37;;
8066;SDS011;4076;48.076;9.118;2022-07-29T02:37:09;3.13;;;2.93;;
8066;SDS011;4076;48.076;9.118;2022-07-29T02:39:36;4.00;;;3.70;;
8066;SDS011;4076;48.076;9.118;2022-07-29T02:42:05;3.63;;;3.37;;
8066;SDS011;4076;48.076;9.118;2022-07-29T02:44:34;3.47;;;3.27;;
8066;SDS011;4076;48.076;9.118;2022-07-29T02:47:13;3.77;;;3.47;;
8066;SDS011;4076;48.076;9.118;2022-07-29T02:52:39;3.77;;;3.50;;
8066;SDS011;4076;48.076;9.118;2022-07-29T02:57:44;3.50;;;3.20;;
8066;SDS011;4076;48.076;9.118;2022-07-29T03:00:18;3.83;;;3.53;;
8066;SDS011;4076;48.076;9.118;2022-07-29T03:02:45;3.50;;;3.20;;
8066;SDS011;4076;48.076;9.118;2022-07-29T03:05:17;4.00;;;3.70;;
8066;SDS011;4076;48.076;9.118;2022-07-29T03:07:49;4.57;;;4.20;;
8066;SDS011;4076;48.076;9.118;2022-07-29T03:10:19;3.60;;;3.33;;
8066;SDS011;4076;48.076;9.118;2022-07-29T03:12:45;3.70;;;3.50;;
8066;SDS011;4076;48.076;9.118;2022-07-29T03:15:12;3.30;;;3.00;;
8066;SDS011;4076;48.076;9.118;2022-07-29T03:17:38;2.37;;;2.17;;
8066;SDS011;4076;48.076;9.118;2022-07-29T03:20:06;3.40;;;3.10;;
8066;SDS011;4076;48.076;9.118;2022-07-29T03:22:32;6.67;;;4.73;;
8066;SDS011;4076;48.076;9.118;2022-07-29T03:25:09;4.50;;;4.17;;
8066;SDS011;4076;48.076;9.118;2022-07-29T03:27:36;4.40;;;4.10;;
8066;SDS011;4076;48.076;9.118;2022-07-29T03:30:02;4.07;;;3.77;;
8066;SDS011;4076;48.076;9.118;2022-07-29T03:32:28;5.73;;;3.60;;
8066;SDS011;4076;48.076;9.118;2022-07-29T03:34:53;3.30;;;3.10;;
8066;SDS011;4076;48.076;9.118;2022-07-29T03:37:19;4.17;;;3.87;;
8066;SDS011;4076;48.076;9.118;2022-07-29T03:39:44;3.90;;;3.60;;
8066;SDS011;4076;48.076;9.118;2022-07-29T03:42:13;3.73;;;3.43;;
8066;SDS011;4076;48.076;9.118;2022-07-29T03:44:41;2.83;;;2.73;;
8066;SDS011;4076;48.076;9.118;2022-07-29T03:47:09;4.37;;;4.00;;
8066;SDS011;4076;48.076;9.118;2022-07-29T03:49:36;5.57;;;5.07;;
8066;SDS011;4076;48.076;9.118;2022-07-29T03:52:03;4.43;;;4.10;;
8066;SDS011;4076;48.076;9.118;2022-07-29T03:54:29;3.77;;;3.50;;
8066;SDS011;4076;48.076;9.118;2022-07-29T03:56:55;3.47;;;3.17;;
8066;SDS011;4076;48.076;9.118;2022-07-29T03:59:28;4.50;;;4.13;;
8066;SDS011;4076;48.076;9.118;2022-07-29T04:01:57;3.60;;;3.40;;
8066;SDS011;4076;48.076;9.118;2022-07-29T04:04:24;4.83;;;4.43;;
8066;SDS011;4076;48.076;9.118;2022-07-29T04:06:50;3.03;;;2.73;;
8066;SDS011;4076;48.076;9.118;2022-07-29T04:09:16;2.80;;;2.60;;
8066;SDS011;4076;48.076;9.118;2022-07-29T04:11:41;4.10;;;3.80;;
8066;SDS011;4076;48.076;9.118;2022-07-29T04:14:07;5.07;;;4.67;;
8066;SDS011;4076;48.076;9.118;2022-07-29T04:16:33;3.87;;;3.57;;
8066;SDS011;4076;48.076;9.118;2022-07-29T04:18:59;8.90;;;4.90;;
8066;SDS011;4076;48.076;9.118;2022-07-29T04:21:24;7.03;;;6.53;;
8066;SDS011;4076;48.076;9.118;2022-07-29T04:23:50;6.23;;;5.67;;
8066;SDS011;4076;48.076;9.118;2022-07-29T04:26:16;5.83;;;5.33;;
8066;SDS011;4076;48.076;9.118;2022-07-29T04:28:42;5.47;;;5.00;;
8066;SDS011;4076;48.076;9.118;2022-07-29T04:31:08;8.43;;;7.67;;
8066;SDS011;4076;48.076;9.118;2022-07-29T04:33:34;5.70;;;5.20;;
8066;SDS011;4076;48.076;9.118;2022-07-29T04:36:00;6.60;;;6.00;;
8066;SDS011;4076;48.076;9.118;2022-07-29T04:38:25;6.93;;;6.13;;
8066;SDS011;4076;48.076;9.118;2022-07-29T04:40:51;6.27;;;5.47;;
8066;SDS011;4076;48.076;9.118;2022-07-29T04:43:16;7.13;;;6.30;;
8066;SDS011;4076;48.076;9.118;2022-07-29T04:45:42;4.50;;;4.20;;
8066;SDS011;4076;48.076;9.118;2022-07-29T04:48:08;7.77;;;6.63;;
8066;SDS011;4076;48.076;9.118;2022-07-29T04:50:33;6.33;;;5.73;;
8066;SDS011;4076;48.076;9.118;2022-07-29T04:52:59;8.50;;;7.10;;
8066;SDS011;4076;48.076;9.118;2022-07-29T04:55:25;7.47;;;6.77;;
8066;SDS011;4076;48.076;9.118;2022-07-29T04:57:51;10.47;;;7.17;;
8066;SDS011;4076;48.076;9.118;2022-07-29T05:00:16;5.50;;;5.10;;
8066;SDS011;4076;48.076;9.118;2022-07-29T05:02:42;5.07;;;4.63;;
8066;SDS011;4076;48.076;9.118;2022-07-29T05:05:08;5.43;;;5.00;;
8066;SDS011;4076;48.076;9.118;2022-07-29T05:07:34;4.40;;;4.10;;
8066;SDS011;4076;48.076;9.118;2022-07-29T05:10:00;6.23;;;5.53;;
8066;SDS011;4076;48.076;9.118;2022-07-29T05:12:26;5.17;;;4.73;;
8066;SDS011;4076;48.076;9.118;2022-07-29T05:14:52;6.50;;;5.10;;
8066;SDS011;4076;48.076;9.118;2022-07-29T05:17:18;4.70;;;4.30;;
8066;SDS011;4076;48.076;9.118;2022-07-29T05:19:43;4.80;;;4.40;;
8066;SDS011;4076;48.076;9.118;2022-07-29T05:22:09;3.63;;;3.33;;
8066;SDS011;4076;48.076;9.118;2022-07-29T05:24:34;4.93;;;4.53;;
8066;SDS011;4076;48.076;9.118;2022-07-29T05:27:00;4.57;;;4.23;;
8066;SDS011;4076;48.076;9.118;2022-07-29T05:29:26;7.03;;;6.43;;
8066;SDS011;4076;48.076;9.118;2022-07-29T05:31:51;6.33;;;5.80;;
8066;SDS011;4076;48.076;9.118;2022-07-29T05:34:18;5.63;;;5.13;;
8066;SDS011;4076;48.076;9.118;2022-07-29T05:36:44;3.67;;;3.43;;
8066;SDS011;4076;48.076;9.118;2022-07-29T05:39:10;4.97;;;4.57;;
8066;SDS011;4076;48.076;9.118;2022-07-29T05:41:35;4.57;;;4.17;;
8066;SDS011;4076;48.076;9.118;2022-07-29T05:44:01;4.97;;;4.47;;
8066;SDS011;4076;48.076;9.118;2022-07-29T05:46:27;4.80;;;4.50;;
8066;SDS011;4076;48.076;9.118;2022-07-29T05:48:53;3.70;;;3.43;;
8066;SDS011;4076;48.076;9.118;2022-07-29T05:51:18;4.63;;;4.23;;
8066;SDS011;4076;48.076;9.118;2022-07-29T05:53:44;4.80;;;4.40;;
8066;SDS011;4076;48.076;9.118;2022-07-29T05:56:09;5.13;;;4.73;;
8066;SDS011;4076;48.076;9.118;2022-07-29T05:58:35;3.87;;;3.60;;
8066;SDS011;4076;48.076;9.118;2022-07-29T06:01:01;3.97;;;3.70;;
8066;SDS011;4076;48.076;9.118;2022-07-29T06:03:27;5.17;;;4.67;;
8066;SDS011;4076;48.076;9.118;2022-07-29T06:05:52;3.23;;;3.03;;
8066;SDS011;4076;48.076;9.118;2022-07-29T06:08:18;4.57;;;4.23;;
8066;SDS011;4076;48.076;9.118;2022-07-29T06:10:44;4.40;;;4.10;;
8066;SDS011;4076;48.076;9.118;2022-07-29T06:13:10;4.23;;;3.83;;
8066;SDS011;4076;48.076;9.118;2022-07-29T06:15:36;4.27;;;3.97;;
8066;SDS011;4076;48.076;9.118;2022-07-29T06:18:02;3.37;;;3.17;;
8066;SDS011;4076;48.076;9.118;2022-07-29T06:20:28;3.83;;;3.63;;
8066;SDS011;4076;48.076;9.118;2022-07-29T06:22:54;4.17;;;3.87;;
8066;SDS011;4076;48.076;9.118;2022-07-29T06:25:20;2.93;;;2.73;;
8066;SDS011;4076;48.076;9.118;2022-07-29T06:27:46;3.27;;;3.10;;
8066;SDS011;4076;48.076;9.118;2022-07-29T06:30:11;3.33;;;3.13;;
8066;SDS011;4076;48.076;9.118;2022-07-29T06:32:37;2.63;;;2.53;;
8066;SDS011;4076;48.076;9.118;2022-07-29T06:35:03;3.30;;;3.10;;
8066;SDS011;4076;48.076;9.118;2022-07-29T06:37:29;3.57;;;3.37;;
8066;SDS011;4076;48.076;9.118;2022-07-29T06:39:54;3.77;;;3.57;;
8066;SDS011;4076;48.076;9.118;2022-07-29T06:42:42;4.33;;;4.00;;
8066;SDS011;4076;48.076;9.118;2022-07-29T06:45:09;3.23;;;3.03;;
8066;SDS011;4076;48.076;9.118;2022-07-29T06:47:35;3.43;;;3.13;;
8066;SDS011;4076;48.076;9.118;2022-07-29T06:50:00;4.47;;;4.13;;
8066;SDS011;4076;48.076;9.118;2022-07-29T06:52:26;3.70;;;3.50;;
8066;SDS011;4076;48.076;9.118;2022-07-29T06:54:51;3.30;;;3.00;;
8066;SDS011;4076;48.076;9.118;2022-07-29T06:57:17;3.80;;;3.50;;
8066;SDS011;4076;48.076;9.118;2022-07-29T06:59:42;4.43;;;4.20;;
8066;SDS011;4076;48.076;9.118;2022-07-29T07:02:08;5.57;;;2.87;;
8066;SDS011;4076;48.076;9.118;2022-07-29T07:04:33;3.10;;;2.90;;
8066;SDS011;4076;48.076;9.118;2022-07-29T07:06:59;3.80;;;2.43;;
8066;SDS011;4076;48.076;9.118;2022-07-29T07:09:25;2.83;;;2.73;;
8066;SDS011;4076;48.076;9.118;2022-07-29T07:11:50;4.20;;;3.40;;
8066;SDS011;4076;48.076;9.118;2022-07-29T07:14:16;2.40;;;2.30;;
8066;SDS011;4076;48.076;9.118;2022-07-29T07:16:41;4.40;;;4.10;;
8066;SDS011;4076;48.076;9.118;2022-07-29T07:19:07;5.03;;;2.67;;
8066;SDS011;4076;48.076;9.118;2022-07-29T07:21:33;3.10;;;2.90;;
8066;SDS011;4076;48.076;9.118;2022-07-29T07:23:59;2.50;;;2.40;;
8066;SDS011;4076;48.076;9.118;2022-07-29T07:26:25;3.67;;;3.47;;
8066;SDS011;4076;48.076;9.118;2022-07-29T07:28:51;3.57;;;3.37;;
8066;SDS011;4076;48.076;9.118;2022-07-29T07:31:17;2.30;;;2.20;;
8066;SDS011;4076;48.076;9.118;2022-07-29T07:33:43;2.10;;;2.00;;
8066;SDS011;4076;48.076;9.118;2022-07-29T07:36:08;3.27;;;3.07;;
8066;SDS011;4076;48.076;9.118;2022-07-29T07:38:34;3.10;;;2.87;;
8066;SDS011;4076;48.076;9.118;2022-07-29T07:41:00;3.50;;;3.30;;
8066;SDS011;4076;48.076;9.118;2022-07-29T07:43:26;3.10;;;2.90;;
8066;SDS011;4076;48.076;9.118;2022-07-29T07:45:51;2.50;;;2.40;;
8066;SDS011;4076;48.076;9.118;2022-07-29T07:48:17;3.10;;;2.90;;
8066;SDS011;4076;48.076;9.118;2022-07-29T07:50:43;3.57;;;3.37;;
8066;SDS011;4076;48.076;9.118;2022-07-29T07:53:08;3.60;;;3.40;;
8066;SDS011;4076;48.076;9.118;2022-07-29T07:55:38;4.23;;;4.03;;
8066;SDS011;4076;48.076;9.118;2022-07-29T07:58:05;3.73;;;3.43;;
8066;SDS011;4076;48.076;9.118;2022-07-29T08:00:31;3.20;;;3.00;;
8066;SDS011;4076;48.076;9.118;2022-07-29T08:02:57;4.10;;;3.30;;
8066;SDS011;4076;48.076;9.118;2022-07-29T08:05:23;2.63;;;2.53;;
8066;SDS011;4076;48.076;9.118;2022-07-29T08:07:49;3.27;;;3.07;;
8066;SDS011;4076;48.076;9.118;2022-07-29T08:10:15;3.57;;;3.37;;
8066;SDS011;4076;48.076;9.118;2022-07-29T08:13:08;3.50;;;3.20;;
8066;SDS011;4076;48.076;9.118;2022-07-29T08:15:36;4.80;;;4.40;;
8066;SDS011;4076;48.076;9.118;2022-07-29T08:18:04;5.47;;;5.07;;
8066;SDS011;4076;48.076;9.118;2022-07-29T08:20:29;3.93;;;3.63;;
8066;SDS011;4076;48.076;9.118;2022-07-29T08:22:58;3.07;;;2.87;;
8066;SDS011;4076;48.076;9.118;2022-07-29T08:25:23;2.67;;;2.53;;
8066;SDS011;4076;48.076;9.118;2022-07-29T08:27:49;3.50;;;3.30;;
8066;SDS011;4076;48.076;9.118;2022-07-29T08:30:14;3.60;;;3.40;;
8066;SDS011;4076;48.076;9.118;2022-07-29T08:32:40;4.03;;;3.80;;
8066;SDS011;4076;48.076;9.118;2022-07-29T08:35:07;4.87;;;4.57;;
8066;SDS011;4076;48.076;9.118;2022-07-29T08:37:33;3.70;;;3.50;;
8066;SDS011;4076;48.076;9.118;2022-07-29T08:39:58;4.10;;;3.90;;
8066;SDS011;4076;48.076;9.118;2022-07-29T08:42:24;4.50;;;4.20;;
8066;SDS011;4076;48.076;9.118;2022-07-29T08:44:50;3.63;;;3.33;;
8066;SDS011;4076;48.076;9.118;2022-07-29T08:47:15;2.77;;;2.67;;
8066;SDS011;4076;48.076;9.118;2022-07-29T08:49:42;4.63;;;4.33;;
8066;SDS011;4076;48.076;9.118;2022-07-29T08:52:10;4.70;;;4.40;;
8066;SDS011;4076;48.076;9.118;2022-07-29T08:54:36;4.80;;;4.47;;
8066;SDS011;4076;48.076;9.118;2022-07-29T08:57:03;4.53;;;4.23;;
8066;SDS011;4076;48.076;9.118;2022-07-29T08:59:30;4.33;;;4.03;;
8066;SDS011;4076;48.076;9.118;2022-07-29T09:01:57;3.90;;;3.60;;
8066;SDS011;4076;48.076;9.118;2022-07-29T09:04:25;4.07;;;3.80;;
8066;SDS011;4076;48.076;9.118;2022-07-29T09:06:54;8.60;;;4.80;;
8066;SDS011;4076;48.076;9.118;2022-07-29T09:09:25;4.00;;;3.77;;
8066;SDS011;4076;48.076;9.118;2022-07-29T09:11:50;3.67;;;3.47;;
8066;SDS011;4076;48.076;9.118;2022-07-29T09:14:18;4.63;;;4.33;;
8066;SDS011;4076;48.076;9.118;2022-07-29T09:16:48;3.90;;;3.70;;
8066;SDS011;4076;48.076;9.118;2022-07-29T09:21:51;3.87;;;3.63;;
8066;SDS011;4076;48.076;9.118;2022-07-29T09:24:42;4.63;;;4.33;;
8066;SDS011;4076;48.076;9.118;2022-07-29T09:27:10;4.77;;;4.37;;
8066;SDS011;4076;48.076;9.118;2022-07-29T09:29:48;5.23;;;4.83;;
8066;SDS011;4076;48.076;9.118;2022-07-29T09:32:56;5.93;;;5.33;;
8066;SDS011;4076;48.076;9.118;2022-07-29T09:35:24;4.07;;;3.87;;
8066;SDS011;4076;48.076;9.118;2022-07-29T09:37:50;3.70;;;3.50;;
8066;SDS011;4076;48.076;9.118;2022-07-29T09:40:17;4.23;;;3.93;;
8066;SDS011;4076;48.076;9.118;2022-07-29T09:42:44;4.87;;;4.67;;
8066;SDS011;4076;48.076;9.118;2022-07-29T09:45:11;4.87;;;4.43;;
8066;SDS011;4076;48.076;9.118;2022-07-29T09:47:41;5.47;;;5.10;;
8066;SDS011;4076;48.076;9.118;2022-07-29T09:50:10;5.50;;;5.20;;
8066;SDS011;4076;48.076;9.118;2022-07-29T09:52:44;4.60;;;4.30;;
8066;SDS011;4076;48.076;9.118;2022-07-29T09:55:11;5.03;;;4.73;;
8066;SDS011;4076;48.076;9.118;2022-07-29T09:57:37;4.33;;;3.93;;
8066;SDS011;4076;48.076;9.118;2022-07-29T10:02:37;5.50;;;5.00;;
8066;SDS011;4076;48.076;9.118;2022-07-29T10:05:05;4.83;;;4.50;;
8066;SDS011;4076;48.076;9.118;2022-07-29T10:07:48;5.10;;;4.80;;
8066;SDS011;4076;48.076;9.118;2022-07-29T10:10:22;4.73;;;4.43;;
8066;SDS011;4076;48.076;9.118;2022-07-29T10:12:57;5.03;;;4.63;;
8066;SDS011;4076;48.076;9.118;2022-07-29T10:15:25;3.70;;;3.50;;
8066;SDS011;4076;48.076;9.118;2022-07-29T10:17:53;4.07;;;3.80;;
8066;SDS011;4076;48.076;9.118;2022-07-29T10:20:20;5.73;;;5.33;;
8066;SDS011;4076;48.076;9.118;2022-07-29T10:22:47;4.37;;;4.17;;
8066;SDS011;4076;48.076;9.118;2022-07-29T10:25:14;4.20;;;3.87;;
8066;SDS011;4076;48.076;9.118;2022-07-29T10:27:41;4.27;;;3.87;;
8066;SDS011;4076;48.076;9.118;2022-07-29T10:30:07;4.73;;;4.43;;
8066;SDS011;4076;48.076;9.118;2022-07-29T10:43:42;5.23;;;4.83;;
8066;SDS011;4076;48.076;9.118;2022-07-29T10:46:09;4.50;;;4.10;;
8066;SDS011;4076;48.076;9.118;2022-07-29T10:48:54;4.70;;;4.50;;
8066;SDS011;4076;48.076;9.118;2022-07-29T10:51:55;4.87;;;4.60;;
8066;SDS011;4076;48.076;9.118;2022-07-29T10:54:52;6.00;;;5.50;;
8066;SDS011;4076;48.076;9.118;2022-07-29T10:59:47;4.20;;;4.00;;
8066;SDS011;4076;48.076;9.118;2022-07-29T11:05:08;5.10;;;4.80;;
8066;SDS011;4076;48.076;9.118;2022-07-29T11:07:34;3.90;;;3.70;;
8066;SDS011;4076;48.076;9.118;2022-07-29T11:15:16;4.40;;;4.20;;
8066;SDS011;4076;48.076;9.118;2022-07-29T11:20:33;5.63;;;5.23;;
8066;SDS011;4076;48.076;9.118;2022-07-29T11:23:20;5.20;;;4.87;;
8066;SDS011;4076;48.076;9.118;2022-07-29T11:39:31;6.47;;;5.93;;
8066;SDS011;4076;48.076;9.118;2022-07-29T11:45:00;6.10;;;5.70;;
8066;SDS011;4076;48.076;9.118;2022-07-29T11:47:30;7.53;;;4.03;;
8066;SDS011;4076;48.076;9.118;2022-07-29T11:49:57;4.20;;;4.00;;
8066;SDS011;4076;48.076;9.118;2022-07-29T11:52:24;4.47;;;4.17;;
8066;SDS011;4076;48.076;9.118;2022-07-29T11:55:20;5.33;;;5.00;;
8066;SDS011;4076;48.076;9.118;2022-07-29T11:57:48;4.83;;;4.43;;
8066;SDS011;4076;48.076;9.118;2022-07-29T12:00:22;5.67;;;5.37;;
8066;SDS011;4076;48.076;9.118;2022-07-29T12:02:49;5.53;;;5.20;;
8066;SDS011;4076;48.076;9.118;2022-07-29T12:05:15;4.90;;;4.60;;
8066;SDS011;4076;48.076;9.118;2022-07-29T12:07:40;5.67;;;5.27;;
8066;SDS011;4076;48.076;9.118;2022-07-29T12:10:06;4.80;;;4.40;;
8066;SDS011;4076;48.076;9.118;2022-07-29T12:12:33;4.57;;;4.27;;
8066;SDS011;4076;48.076;9.118;2022-07-29T12:15:15;4.67;;;4.37;;
8066;SDS011;4076;48.076;9.118;2022-07-29T12:17:43;4.13;;;3.93;;
8066;SDS011;4076;48.076;9.118;2022-07-29T12:20:09;4.43;;;4.13;;
8066;SDS011;4076;48.076;9.118;2022-07-29T12:22:36;3.73;;;3.53;;
8066;SDS011;4076;48.076;9.118;2022-07-29T12:25:03;4.27;;;3.97;;
8066;SDS011;4076;48.076;9.118;2022-07-29T12:27:34;3.43;;;3.33;;
8066;SDS011;4076;48.076;9.118;2022-07-29T12:30:06;5.03;;;3.97;;
8066;SDS011;4076;48.076;9.118;2022-07-29T12:32:37;3.97;;;3.77;;
8066;SDS011;4076;48.076;9.118;2022-07-29T12:35:11;5.20;;;4.90;;
8066;SDS011;4076;48.076;9.118;2022-07-29T12:37:40;9.57;;;4.90;;
8066;SDS011;4076;48.076;9.118;2022-07-29T12:40:08;5.57;;;5.17;;
8066;SDS011;4076;48.076;9.118;2022-07-29T12:42:35;5.57;;;5.20;;
8066;SDS011;4076;48.076;9.118;2022-07-29T12:45:02;4.90;;;4.50;;
8066;SDS011;4076;48.076;9.118;2022-07-29T12:47:29;5.60;;;5.20;;
8066;SDS011;4076;48.076;9.118;2022-07-29T12:50:16;4.83;;;4.43;;
8066;SDS011;4076;48.076;9.118;2022-07-29T12:52:43;5.33;;;4.80;;
8066;SDS011;4076;48.076;9.118;2022-07-29T12:55:09;4.80;;;4.40;;
8066;SDS011;4076;48.076;9.118;2022-07-29T12:57:45;6.00;;;5.57;;
8066;SDS011;4076;48.076;9.118;2022-07-29T13:00:12;5.20;;;4.90;;
8066;SDS011;4076;48.076;9.118;2022-07-29T13:02:39;7.00;;;6.50;;
8066;SDS011;4076;48.076;9.118;2022-07-29T13:05:06;5.43;;;5.13;;
8066;SDS011;4076;48.076;9.118;2022-07-29T13:07:33;5.20;;;4.80;;
8066;SDS011;4076;48.076;9.118;2022-07-29T13:10:14;9.10;;;5.90;;
8066;SDS011;4076;48.076;9.118;2022-07-29T13:22:22;5.37;;;4.87;;
8066;SDS011;4076;48.076;9.118;2022-07-29T13:24:50;5.07;;;4.67;;
8066;SDS011;4076;48.076;9.118;2022-07-29T13:27:21;4.33;;;3.93;;
8066;SDS011;4076;48.076;9.118;2022-07-29T13:29:48;4.27;;;3.97;;
8066;SDS011;4076;48.076;9.118;2022-07-29T13:32:17;4.60;;;4.30;;
8066;SDS011;4076;48.076;9.118;2022-07-29T13:34:43;4.53;;;4.13;;
8066;SDS011;4076;48.076;9.118;2022-07-29T13:37:08;4.50;;;4.20;;
8066;SDS011;4076;48.076;9.118;2022-07-29T13:39:34;4.90;;;4.17;;
8066;SDS011;4076;48.076;9.118;2022-07-29T13:41:59;4.03;;;3.83;;
8066;SDS011;4076;48.076;9.118;2022-07-29T13:44:26;3.57;;;3.27;;
8066;SDS011;4076;48.076;9.118;2022-07-29T13:46:51;3.97;;;3.67;;
8066;SDS011;4076;48.076;9.118;2022-07-29T13:49:17;3.77;;;3.57;;
8066;SDS011;4076;48.076;9.118;2022-07-29T13:51:42;6.03;;;5.43;;
8066;SDS011;4076;48.076;9.118;2022-07-29T13:54:08;2.70;;;2.57;;
8066;SDS011;4076;48.076;9.118;2022-07-29T13:56:33;3.20;;;3.00;;
8066;SDS011;4076;48.076;9.118;2022-07-29T13:58:59;3.30;;;3.00;;
8066;SDS011;4076;48.076;9.118;2022-07-29T14:01:25;3.43;;;3.13;;
8066;SDS011;4076;48.076;9.118;2022-07-29T14:03:51;4.97;;;4.60;;
8066;SDS011;4076;48.076;9.118;2022-07-29T14:06:17;4.10;;;3.80;;
8066;SDS011;4076;48.076;9.118;2022-07-29T14:08:42;3.20;;;3.00;;
8066;SDS011;4076;48.076;9.118;2022-07-29T14:11:08;3.50;;;3.30;;
8066;SDS011;4076;48.076;9.118;2022-07-29T14:13:34;5.70;;;5.30;;
8066;SDS011;4076;48.076;9.118;2022-07-29T14:15:59;5.60;;;5.30;;
8066;SDS011;4076;48.076;9.118;2022-07-29T14:18:25;4.10;;;3.90;;
8066;SDS011;4076;48.076;9.118;2022-07-29T14:20:51;5.90;;;5.40;;
8066;SDS011;4076;48.076;9.118;2022-07-29T14:23:16;5.20;;;4.37;;
8066;SDS011;4076;48.076;9.118;2022-07-29T14:25:42;4.30;;;4.00;;
8066;SDS011;4076;48.076;9.118;2022-07-29T14:28:08;4.73;;;4.43;;
8066;SDS011;4076;48.076;9.118;2022-07-29T14:30:33;4.47;;;4.17;;
8066;SDS011;4076;48.076;9.118;2022-07-29T14:32:59;4.60;;;4.30;;
8066;SDS011;4076;48.076;9.118;2022-07-29T14:35:24;4.80;;;4.30;;
8066;SDS011;4076;48.076;9.118;2022-07-29T14:37:50;5.30;;;5.00;;
8066;SDS011;4076;48.076;9.118;2022-07-29T14:40:15;6.60;;;6.13;;
8066;SDS011;4076;48.076;9.118;2022-07-29T14:42:41;6.10;;;5.60;;
8066;SDS011;4076;48.076;9.118;2022-07-29T14:45:07;4.77;;;4.47;;
8066;SDS011;4076;48.076;9.118;2022-07-29T14:47:33;5.80;;;5.40;;
8066;SDS011;4076;48.076;9.118;2022-07-29T14:49:59;5.63;;;5.33;;
8066;SDS011;4076;48.076;9.118;2022-07-29T14:52:25;5.77;;;5.27;;
8066;SDS011;4076;48.076;9.118;2022-07-29T14:54:51;5.40;;;5.00;;
8066;SDS011;4076;48.076;9.118;2022-07-29T14:57:16;5.93;;;5.53;;
8066;SDS011;4076;48.076;9.118;2022-07-29T14:59:42;4.80;;;4.40;;
8066;SDS011;4076;48.076;9.118;2022-07-29T15:02:07;5.37;;;5.07;;
8066;SDS011;4076;48.076;9.118;2022-07-29T15:04:33;5.40;;;5.10;;
8066;SDS011;4076;48.076;9.118;2022-07-29T15:06:59;5.63;;;5.23;;
8066;SDS011;4076;48.076;9.118;2022-07-29T15:09:25;4.00;;;3.70;;
8066;SDS011;4076;48.076;9.118;2022-07-29T15:11:50;6.00;;;5.60;;
8066;SDS011;4076;48.076;9.118;2022-07-29T15:14:16;3.63;;;3.40;;
8066;SDS011;4076;48.076;9.118;2022-07-29T15:16:42;5.90;;;5.50;;
8066;SDS011;4076;48.076;9.118;2022-07-29T15:19:08;5.30;;;5.00;;
8066;SDS011;4076;48.076;9.118;2022-07-29T15:21:34;4.10;;;3.90;;
8066;SDS011;4076;48.076;9.118;2022-07-29T15:24:00;5.73;;;5.33;;
8066;SDS011;4076;48.076;9.118;2022-07-29T15:26:25;3.97;;;3.77;;
8066;SDS011;4076;48.076;9.118;2022-07-29T15:28:51;3.63;;;3.43;;
8066;SDS011;4076;48.076;9.118;2022-07-29T15:31:16;3.30;;;3.10;;
8066;SDS011;4076;48.076;9.118;2022-07-29T15:33:43;3.83;;;3.63;;
8066;SDS011;4076;48.076;9.118;2022-07-29T15:36:09;4.27;;;4.03;;
8066;SDS011;4076;48.076;9.118;2022-07-29T15:38:37;4.73;;;4.43;;
8066;SDS011;4076;48.076;9.118;2022-07-29T15:41:03;3.67;;;3.47;;
8066;SDS011;4076;48.076;9.118;2022-07-29T15:43:28;4.43;;;4.23;;
8066;SDS011;4076;48.076;9.118;2022-07-29T15:45:54;5.73;;;5.30;;
8066;SDS011;4076;48.076;9.118;2022-07-29T15:48:38;4.50;;;4.20;;
8066;SDS011;4076;48.076;9.118;2022-07-29T15:51:04;4.67;;;4.37;;
8066;SDS011;4076;48.076;9.118;2022-07-29T15:53:29;5.03;;;4.63;;
8066;SDS011;4076;48.076;9.118;2022-07-29T15:55:55;5.07;;;4.77;;
8066;SDS011;4076;48.076;9.118;2022-07-29T15:58:20;3.80;;;3.50;;
8066;SDS011;4076;48.076;9.118;2022-07-29T16:00:46;4.30;;;4.00;;
8066;SDS011;4076;48.076;9.118;2022-07-29T16:03:12;5.57;;;5.17;;
8066;SDS011;4076;48.076;9.118;2022-07-29T16:05:38;6.30;;;5.90;;
8066;SDS011;4076;48.076;9.118;2022-07-29T16:08:04;11.63;;;10.57;;
8066;SDS011;4076;48.076;9.118;2022-07-29T16:10:30;10.70;;;9.63;;
8066;SDS011;4076;48.076;9.118;2022-07-29T16:12:55;6.90;;;6.30;;
8066;SDS011;4076;48.076;9.118;2022-07-29T16:15:21;5.77;;;5.47;;
8066;SDS011;4076;48.076;9.118;2022-07-29T16:17:47;4.90;;;4.60;;
8066;SDS011;4076;48.076;9.118;2022-07-29T16:20:14;5.33;;;5.00;;
8066;SDS011;4076;48.076;9.118;2022-07-29T16:22:40;6.07;;;5.50;;
8066;SDS011;4076;48.076;9.118;2022-07-29T16:25:05;5.70;;;5.30;;
8066;SDS011;4076;48.076;9.118;2022-07-29T16:27:31;4.57;;;4.27;;
8066;SDS011;4076;48.076;9.118;2022-07-29T16:29:57;4.87;;;4.40;;